Time;durP1;ratioP1;P1;durP2;ratioP2;P2;SDS_P1;SDS_P2;PMS_P1;PMS_P2;Temp;Humidity;BMP_temperature;BMP_pressure;BME280_temperature;BME280_humidity;BME280_pressure;Samples;Min_cycle;Max_cycle;Signal;HPM_P1;HPM_P2
2023/08/15 00:00:29;;;;;;;16.83;9.63;;;18.90;99.90;;;;;;5117665;28;20420;-53
2023/08/15 00:02:55;;;;;;;17.47;9.90;;;18.80;1.00;;;;;;5117742;28;20227;-53
2023/08/15 00:05:20;;;;;;;13.00;9.70;;;18.80;1.00;;;;;;5117573;28;20545;-53
2023/08/15 00:07:46;;;;;;;13.87;10.70;;;18.80;99.90;;;;;;5117335;28;20215;-53
2023/08/15 00:10:11;;;;;;;15.23;9.13;;;18.70;99.90;;;;;;5116978;28;20185;-53
2023/08/15 00:12:37;;;;;;;19.30;10.40;;;18.70;1.00;;;;;;5117000;28;20176;-53
2023/08/15 00:15:03;;;;;;;12.67;9.90;;;18.70;1.00;;;;;;5117258;28;20196;-53
2023/08/15 00:17:29;;;;;;;17.00;9.70;;;18.70;1.00;;;;;;5117284;28;20207;-53
2023/08/15 00:19:54;;;;;;;11.93;9.23;;;18.70;1.00;;;;;;5117347;28;20916;-53
2023/08/15 00:22:20;;;;;;;13.73;9.93;;;18.60;1.00;;;;;;5116998;28;20238;-53
2023/08/15 00:24:45;;;;;;;12.60;9.20;;;18.60;99.90;;;;;;5117313;28;20178;-53
2023/08/15 00:27:11;;;;;;;16.57;10.77;;;18.60;99.90;;;;;;5116996;28;20175;-53
2023/08/15 00:29:36;;;;;;;15.97;10.50;;;18.60;99.90;;;;;;5116771;28;20182;-53
2023/08/15 00:32:02;;;;;;;13.70;10.30;;;18.60;1.00;;;;;;5117204;28;20188;-53
2023/08/15 00:34:28;;;;;;;11.23;9.70;;;18.50;99.90;;;;;;5116944;28;20189;-53
2023/08/15 00:36:53;;;;;;;16.50;10.97;;;18.50;96.60;;;;;;5117084;28;20182;-53
2023/08/15 00:39:19;;;;;;;18.30;10.93;;;18.50;99.90;;;;;;5117130;28;20619;-53
2023/08/15 00:41:44;;;;;;;15.37;11.27;;;18.50;99.90;;;;;;5116830;28;20179;-53
2023/08/15 00:44:10;;;;;;;15.50;9.90;;;18.50;1.00;;;;;;5098290;28;20314;-53
2023/08/15 00:46:37;;;;;;;18.03;10.67;;;18.50;1.00;;;;;;5116715;28;20184;-53
2023/08/15 00:49:04;;;;;;;14.17;9.43;;;18.40;99.90;;;;;;5116456;28;20214;-53
2023/08/15 00:51:30;;;;;;;16.53;10.40;;;18.40;99.90;;;;;;5115365;28;20430;-53
2023/08/15 00:53:56;;;;;;;19.10;10.60;;;18.40;1.00;;;;;;5116119;28;20519;-53
2023/08/15 00:56:22;;;;;;;19.20;10.80;;;18.30;1.00;;;;;;5116473;28;20460;-53
2023/08/15 00:58:48;;;;;;;18.43;11.57;;;18.30;99.90;;;;;;5116079;28;20917;-53
2023/08/15 01:01:17;;;;;;;20.67;10.60;;;18.30;99.90;;;;;;5116330;28;20180;-53
2023/08/15 01:03:43;;;;;;;17.80;11.40;;;18.30;1.00;;;;;;5116320;28;20474;-53
2023/08/15 01:06:09;;;;;;;16.10;10.83;;;18.30;1.00;;;;;;5116525;28;20459;-53
2023/08/15 01:08:35;;;;;;;13.90;10.53;;;18.30;1.00;;;;;;5115855;28;20461;-53
2023/08/15 01:11:01;;;;;;;17.67;10.40;;;18.30;1.00;;;;;;5116016;28;20187;-53
2023/08/15 01:13:39;;;;;;;16.03;10.70;;;18.30;1.00;;;;;;5115793;28;20174;-52
2023/08/15 01:16:09;;;;;;;17.37;10.47;;;18.30;34.30;;;;;;5115931;28;20407;-53
2023/08/15 01:18:41;;;;;;;19.13;10.27;;;18.30;99.90;;;;;;5116051;28;20400;-54
2023/08/15 01:21:07;;;;;;;14.60;10.27;;;18.30;1.00;;;;;;5115680;28;20932;-53
2023/08/15 01:23:43;;;;;;;22.13;10.43;;;18.30;1.00;;;;;;5116281;28;20408;-53
2023/08/15 01:26:09;;;;;;;18.43;10.67;;;18.30;1.00;;;;;;5116183;28;20461;-53
2023/08/15 01:28:34;;;;;;;17.40;10.17;;;18.30;1.00;;;;;;5115693;28;20513;-53
2023/08/15 01:31:15;;;;;;;16.30;10.40;;;18.30;99.90;;;;;;5115606;28;20664;-53
2023/08/15 01:33:50;;;;;;;15.20;10.23;;;18.30;99.90;;;;;;5115567;28;20190;-53
2023/08/15 01:36:22;;;;;;;14.20;9.63;;;18.30;99.90;;;;;;5115665;28;20409;-53
2023/08/15 01:38:54;;;;;;;16.60;10.37;;;18.20;99.90;;;;;;5115561;28;20874;-53
2023/08/15 01:41:23;;;;;;;15.07;9.47;;;18.20;99.90;;;;;;5115648;28;20428;-53
2023/08/15 01:43:50;;;;;;;15.23;10.67;;;18.20;99.90;;;;;;5096961;28;20425;-53
2023/08/15 01:46:16;;;;;;;14.40;10.70;;;18.20;1.00;;;;;;5115784;28;20422;-52
2023/08/15 01:48:42;;;;;;;13.77;10.20;;;18.10;1.00;;;;;;5115250;28;20453;-53
2023/08/15 01:51:09;;;;;;;13.50;9.77;;;18.10;1.00;;;;;;5115593;28;20222;-53
2023/08/15 01:53:36;;;;;;;15.73;9.83;;;18.10;1.00;;;;;;5115165;28;20416;-53
2023/08/15 01:56:02;;;;;;;14.50;10.03;;;18.10;1.00;;;;;;5115277;28;20409;-53
2023/08/15 01:58:27;;;;;;;16.03;9.90;;;18.00;1.00;;;;;;5114938;28;20430;-52
2023/08/15 02:00:53;;;;;;;12.50;9.67;;;18.00;1.00;;;;;;5115429;28;20480;-53
2023/08/15 02:03:18;;;;;;;11.57;9.80;;;18.00;1.00;;;;;;5115350;28;20194;-53
2023/08/15 02:05:44;;;;;;;17.13;9.50;;;17.90;1.00;;;;;;5114979;28;20527;-53
2023/08/15 02:08:09;;;;;;;15.40;10.20;;;17.90;1.00;;;;;;5115304;28;20330;-53
2023/08/15 02:10:35;;;;;;;19.00;9.83;;;17.90;1.00;;;;;;5114989;28;20188;-53
2023/08/15 02:13:01;;;;;;;13.77;10.07;;;17.80;40.80;;;;;;5114965;28;20579;-53
2023/08/15 02:15:26;;;;;;;13.33;9.97;;;17.80;55.40;;;;;;5114727;28;20176;-53
2023/08/15 02:17:52;;;;;;;13.00;10.20;;;17.90;99.90;;;;;;5114612;28;20177;-53
2023/08/15 02:20:17;;;;;;;18.60;11.50;;;17.90;99.90;;;;;;5114825;28;20641;-52
2023/08/15 02:22:43;;;;;;;12.43;10.00;;;17.90;99.90;;;;;;5114652;28;20230;-53
2023/08/15 02:25:08;;;;;;;16.90;10.57;;;17.90;99.90;;;;;;5114851;28;20179;-54
2023/08/15 02:27:34;;;;;;;14.10;10.50;;;17.80;99.90;;;;;;5114491;28;20238;-53
2023/08/15 02:30:00;;;;;;;16.93;10.37;;;17.80;99.90;;;;;;5114672;28;20190;-52
2023/08/15 02:32:25;;;;;;;19.23;10.30;;;17.80;99.90;;;;;;5114773;28;20324;-53
2023/08/15 02:34:51;;;;;;;13.17;10.33;;;17.80;99.90;;;;;;5114607;28;20185;-52
2023/08/15 02:37:17;;;;;;;14.57;10.63;;;17.80;99.90;;;;;;5114569;28;20263;-53
2023/08/15 02:39:43;;;;;;;15.53;10.23;;;17.80;99.90;;;;;;5114535;28;20459;-52
2023/08/15 02:42:08;;;;;;;11.67;10.40;;;17.70;99.90;;;;;;5114534;28;20655;-52
2023/08/15 02:44:34;;;;;;;15.67;10.13;;;17.70;99.90;;;;;;5114172;28;20179;-52
2023/08/15 02:46:59;;;;;;;11.60;10.20;;;17.70;99.90;;;;;;5114454;28;20189;-52
2023/08/15 02:49:25;;;;;;;16.00;10.17;;;17.70;99.90;;;;;;5114266;28;20294;-52
2023/08/15 02:51:50;;;;;;;15.10;10.57;;;17.70;99.90;;;;;;5114630;28;20183;-52
2023/08/15 02:54:16;;;;;;;12.40;9.90;;;17.70;99.90;;;;;;5114736;28;20183;-53
2023/08/15 02:56:42;;;;;;;14.70;11.33;;;17.60;99.90;;;;;;5114096;28;20192;-52
2023/08/15 02:59:07;;;;;;;16.27;10.60;;;17.70;99.90;;;;;;5114341;28;20265;-52
2023/08/15 03:01:33;;;;;;;16.10;10.93;;;17.70;99.90;;;;;;5114401;28;20181;-52
2023/08/15 03:03:59;;;;;;;19.40;11.23;;;17.60;99.90;;;;;;5113955;28;20210;-53
2023/08/15 03:06:24;;;;;;;12.43;10.03;;;17.70;99.90;;;;;;5114324;28;20411;-53
2023/08/15 03:08:50;;;;;;;18.10;10.00;;;17.60;99.90;;;;;;5114353;28;20584;-53
2023/08/15 03:11:16;;;;;;;12.97;10.47;;;17.60;99.90;;;;;;5113884;28;20272;-53
2023/08/15 03:13:41;;;;;;;12.73;9.40;;;17.60;99.90;;;;;;5114548;28;20175;-54
2023/08/15 03:16:07;;;;;;;15.00;10.20;;;17.60;99.90;;;;;;5118375;28;20189;-52
2023/08/15 03:18:32;;;;;;;13.80;9.83;;;17.60;99.90;;;;;;5118350;28;20647;-53
2023/08/15 03:20:59;;;;;;;17.17;11.37;;;17.60;99.90;;;;;;5118346;28;20186;-52
2023/08/15 03:23:25;;;;;;;12.57;10.27;;;17.60;99.90;;;;;;5117926;28;20178;-52
2023/08/15 03:25:58;;;;;;;11.53;9.53;;;17.70;99.90;;;;;;5117902;28;20413;-52
2023/08/15 03:28:24;;;;;;;17.40;11.00;;;17.70;99.90;;;;;;5117854;28;20220;-52
2023/08/15 03:30:50;;;;;;;15.77;11.03;;;17.80;99.90;;;;;;5118051;28;20420;-52
2023/08/15 03:33:16;;;;;;;11.20;10.10;;;17.80;99.90;;;;;;5118030;28;20407;-53
2023/08/15 03:35:49;;;;;;;19.63;10.67;;;17.80;99.90;;;;;;5117979;28;20642;-52
2023/08/15 03:38:16;;;;;;;15.10;11.27;;;17.90;99.90;;;;;;5118258;28;20521;-53
2023/08/15 03:40:43;;;;;;;16.20;10.10;;;17.90;99.90;;;;;;5118058;28;20435;-52
2023/08/15 03:43:10;;;;;;;12.50;10.50;;;18.00;99.90;;;;;;5118208;28;20420;-52
2023/08/15 03:45:36;;;;;;;16.33;10.70;;;18.00;99.90;;;;;;5117469;28;20762;-52
2023/08/15 03:48:01;;;;;;;13.73;10.40;;;18.10;99.90;;;;;;5117723;28;20460;-53
2023/08/15 03:50:27;;;;;;;16.43;10.17;;;18.20;99.90;;;;;;5117463;28;20431;-53
2023/08/15 03:52:52;;;;;;;17.60;11.30;;;18.20;99.90;;;;;;5117433;28;20209;-52
2023/08/15 03:55:18;;;;;;;16.37;10.97;;;18.30;99.90;;;;;;5117677;28;20178;-52
2023/08/15 03:57:44;;;;;;;16.30;12.13;;;18.30;99.90;;;;;;5117206;28;20221;-52
2023/08/15 04:00:11;;;;;;;13.90;11.30;;;18.40;99.90;;;;;;5117875;28;20187;-52
2023/08/15 04:02:36;;;;;;;17.70;11.50;;;18.40;99.90;;;;;;5117433;28;20203;-52
2023/08/15 04:05:03;;;;;;;13.77;11.33;;;18.50;99.90;;;;;;5117168;28;20424;-52
2023/08/15 04:07:29;;;;;;;14.30;11.70;;;18.40;99.90;;;;;;5117101;28;20186;-52
2023/08/15 04:09:54;;;;;;;15.50;11.00;;;18.50;99.90;;;;;;5117556;28;20818;-52
2023/08/15 04:12:20;;;;;;;16.70;12.40;;;18.60;99.90;;;;;;5117406;28;20181;-52
2023/08/15 04:14:45;;;;;;;16.43;11.57;;;18.60;99.90;;;;;;5117000;28;20190;-53
2023/08/15 04:17:11;;;;;;;13.93;12.20;;;18.60;99.90;;;;;;5098855;28;20204;-52
2023/08/15 04:19:37;;;;;;;21.63;12.00;;;18.70;99.90;;;;;;5117150;28;20178;-52
2023/08/15 04:22:03;;;;;;;16.43;11.43;;;18.70;99.90;;;;;;5116737;28;20234;-52
2023/08/15 04:24:28;;;;;;;12.60;10.47;;;18.70;99.90;;;;;;5117453;28;20273;-52
2023/08/15 04:26:54;;;;;;;12.50;11.20;;;18.70;99.90;;;;;;5117274;28;20504;-52
2023/08/15 04:29:20;;;;;;;17.40;11.00;;;18.70;99.90;;;;;;5116892;28;20202;-52
2023/08/15 04:31:45;;;;;;;16.63;11.37;;;18.70;99.90;;;;;;5116749;28;20256;-52
2023/08/15 04:34:11;;;;;;;18.23;11.03;;;18.70;99.90;;;;;;5116961;28;20178;-52
2023/08/15 04:36:37;;;;;;;18.40;12.30;;;18.70;99.90;;;;;;5116820;28;20182;-52
2023/08/15 04:39:03;;;;;;;13.90;12.37;;;18.70;99.90;;;;;;5117080;28;20578;-52
2023/08/15 04:41:28;;;;;;;20.43;12.37;;;18.70;99.90;;;;;;5117119;28;20180;-52
2023/08/15 04:43:54;;;;;;;19.13;12.50;;;18.70;99.90;;;;;;5116945;28;20748;-52
2023/08/15 04:46:19;;;;;;;16.53;13.00;;;18.80;99.90;;;;;;5116419;28;20180;-52
2023/08/15 04:48:45;;;;;;;19.53;12.87;;;18.80;99.90;;;;;;5116511;28;20244;-52
2023/08/15 04:51:11;;;;;;;15.97;11.67;;;18.80;99.90;;;;;;5116888;28;20187;-52
2023/08/15 04:53:37;;;;;;;16.40;12.90;;;18.90;99.90;;;;;;5116196;28;20509;-54
2023/08/15 04:56:02;;;;;;;13.80;11.90;;;18.90;99.90;;;;;;5116441;28;20501;-53
2023/08/15 04:58:28;;;;;;;13.57;12.13;;;19.00;99.90;;;;;;5116838;28;20632;-52
2023/08/15 05:00:53;;;;;;;17.27;12.53;;;19.10;99.90;;;;;;5116339;28;20317;-52
2023/08/15 05:03:19;;;;;;;15.70;12.20;;;19.20;99.90;;;;;;5116421;28;20189;-52
2023/08/15 05:05:45;;;;;;;16.73;12.80;;;19.30;99.90;;;;;;5116015;28;20177;-52
2023/08/15 05:08:12;;;;;;;20.03;12.40;;;19.30;99.90;;;;;;5116159;28;20252;-52
2023/08/15 05:10:37;;;;;;;14.73;13.20;;;19.40;99.90;;;;;;5116179;28;20199;-52
2023/08/15 05:13:03;;;;;;;19.83;12.73;;;19.60;99.90;;;;;;5115813;28;20409;-52
2023/08/15 05:15:29;;;;;;;13.57;11.53;;;19.70;99.90;;;;;;5116186;28;20206;-52
2023/08/15 05:17:55;;;;;;;15.20;12.33;;;19.80;99.90;;;;;;5115792;28;20182;-52
2023/08/15 05:20:20;;;;;;;14.00;12.60;;;20.00;99.90;;;;;;5115935;28;20262;-52
2023/08/15 05:22:47;;;;;;;16.93;12.80;;;20.20;99.90;;;;;;5115493;28;20906;-52
2023/08/15 05:25:13;;;;;;;23.40;13.70;;;20.40;99.90;;;;;;5116220;28;20180;-52
2023/08/15 05:27:39;;;;;;;17.20;12.90;;;20.50;99.90;;;;;;5115608;28;20476;-52
2023/08/15 05:30:05;;;;;;;14.50;11.80;;;20.70;99.90;;;;;;5115540;28;20185;-53
2023/08/15 05:32:30;;;;;;;15.73;12.43;;;20.80;99.90;;;;;;5115727;28;20233;-53
2023/08/15 05:34:56;;;;;;;14.77;12.57;;;21.00;99.90;;;;;;5115372;28;20512;-53
2023/08/15 05:37:21;;;;;;;16.47;11.97;;;21.10;99.90;;;;;;5115082;28;20173;-53
2023/08/15 05:39:47;;;;;;;16.17;11.43;;;21.40;51.20;;;;;;5115796;28;20650;-53
2023/08/15 05:42:17;;;;;;;15.33;11.30;;;21.60;1.00;;;;;;5115691;28;20176;-53
2023/08/15 05:44:45;;;;;;;24.00;11.10;;;21.80;1.00;;;;;;5115669;28;20254;-53
2023/08/15 05:47:10;;;;;;;19.10;10.90;;;22.00;1.00;;;;;;5115778;28;20417;-53
2023/08/15 05:49:36;;;;;;;13.80;11.10;;;22.30;99.90;;;;;;5115168;28;20470;-53
2023/08/15 05:52:02;;;;;;;15.70;10.90;;;22.40;99.90;;;;;;5115334;28;20204;-53
2023/08/15 05:54:28;;;;;;;15.50;9.20;;;22.60;99.90;;;;;;5115363;28;20180;-54
2023/08/15 05:56:55;;;;;;;13.60;9.20;;;23.00;99.90;;;;;;5115014;28;20932;-53
2023/08/15 05:59:21;;;;;;;10.67;8.20;;;23.20;48.40;;;;;;5115125;28;20427;-52
2023/08/15 06:01:46;;;;;;;9.97;7.60;;;23.50;1.00;;;;;;5096820;28;20426;-52
2023/08/15 06:04:12;;;;;;;15.60;7.60;;;23.50;1.00;;;;;;5115313;28;20189;-53
2023/08/15 06:06:37;;;;;;;12.10;6.93;;;23.40;99.90;;;;;;5115222;28;20177;-52
2023/08/15 06:09:04;;;;;;;10.13;7.10;;;23.20;99.90;;;;;;5115246;28;20207;-52
2023/08/15 06:11:30;;;;;;;12.07;7.50;;;23.10;99.90;;;;;;5115423;28;20220;-53
2023/08/15 06:13:55;;;;;;;12.50;7.33;;;23.10;1.00;;;;;;5114784;28;20417;-53
2023/08/15 06:16:21;;;;;;;13.63;7.30;;;23.00;1.00;;;;;;5115160;28;20268;-52
2023/08/15 06:18:47;;;;;;;8.30;7.13;;;22.90;1.00;;;;;;5114530;28;20583;-52
2023/08/15 06:21:12;;;;;;;8.57;6.87;;;22.80;1.00;;;;;;5114508;28;20228;-53
2023/08/15 06:23:38;;;;;;;10.03;6.83;;;22.80;1.00;;;;;;5114902;28;20185;-52
2023/08/15 06:26:03;;;;;;;18.63;6.73;;;22.70;1.00;;;;;;5115130;28;20181;-53
2023/08/15 06:28:29;;;;;;;9.43;6.93;;;22.80;1.00;;;;;;5114675;28;20561;-52
2023/08/15 06:30:55;;;;;;;13.23;7.70;;;22.90;1.00;;;;;;5114340;28;20177;-53
2023/08/15 06:33:21;;;;;;;10.40;7.00;;;23.00;1.00;;;;;;5114570;28;20254;-52
2023/08/15 06:35:46;;;;;;;8.93;6.70;;;23.10;1.00;;;;;;5114091;28;20898;-53
2023/08/15 06:38:12;;;;;;;14.40;7.50;;;23.20;99.90;;;;;;5113998;28;20225;-53
2023/08/15 06:40:39;;;;;;;9.10;7.43;;;23.30;99.90;;;;;;5114526;28;20236;-52
2023/08/15 06:43:04;;;;;;;11.90;6.93;;;23.50;99.90;;;;;;5114700;28;20268;-52
2023/08/15 06:45:30;;;;;;;10.70;7.00;;;23.60;99.90;;;;;;5114444;28;20450;-53
2023/08/15 06:47:56;;;;;;;29.97;7.70;;;23.70;99.90;;;;;;5113955;28;20208;-52
2023/08/15 06:50:22;;;;;;;9.43;6.70;;;23.80;95.20;;;;;;5113967;28;20173;-53
2023/08/15 06:52:47;;;;;;;11.77;7.50;;;23.90;85.40;;;;;;5114355;28;20181;-53
2023/08/15 06:55:13;;;;;;;11.43;6.60;;;24.00;44.10;;;;;;5114351;28;20668;-52
2023/08/15 06:57:39;;;;;;;9.17;7.00;;;24.20;4.60;;;;;;5114288;28;20366;-52
2023/08/15 07:00:07;;;;;;;7.53;6.50;;;24.20;1.00;;;;;;5114240;28;20181;-53
2023/08/15 07:02:33;;;;;;;10.37;6.87;;;24.10;3.10;;;;;;5114657;28;20234;-53
2023/08/15 07:04:58;;;;;;;9.17;6.83;;;24.00;24.60;;;;;;5114593;28;20415;-53
2023/08/15 07:07:24;;;;;;;10.57;7.07;;;23.80;66.60;;;;;;5114027;28;20250;-53
2023/08/15 07:09:49;;;;;;;12.87;7.47;;;23.80;67.00;;;;;;5113904;28;20192;-53
2023/08/15 07:12:18;;;;;;;13.30;7.10;;;23.70;99.90;;;;;;5113862;28;20172;-53
2023/08/15 07:14:45;;;;;;;12.97;6.77;;;23.80;77.40;;;;;;5114216;28;20228;-53
2023/08/15 07:17:11;;;;;;;9.83;6.67;;;23.80;70.60;;;;;;5113782;28;20779;-52
2023/08/15 07:19:36;;;;;;;7.87;6.63;;;23.70;99.90;;;;;;5113693;28;20418;-52
2023/08/15 07:22:02;;;;;;;13.67;7.40;;;23.80;99.90;;;;;;5113835;28;20239;-53
2023/08/15 07:24:27;;;;;;;9.80;6.80;;;23.80;99.90;;;;;;5113588;28;20179;-52
2023/08/15 07:26:53;;;;;;;10.33;6.93;;;23.80;99.90;;;;;;5114301;28;20564;-52
2023/08/15 07:29:19;;;;;;;10.80;7.00;;;23.80;99.90;;;;;;5113944;28;20200;-52
2023/08/15 07:31:44;;;;;;;12.20;7.43;;;23.80;99.90;;;;;;5114157;28;20210;-52
2023/08/15 07:34:10;;;;;;;11.33;7.20;;;23.80;99.90;;;;;;5114370;28;20185;-52
2023/08/15 07:36:35;;;;;;;9.17;7.10;;;23.70;99.90;;;;;;5114267;28;20537;-52
2023/08/15 07:39:01;;;;;;;15.40;8.33;;;23.60;99.90;;;;;;5113641;28;20736;-52
2023/08/15 07:41:26;;;;;;;10.50;7.60;;;23.40;99.90;;;;;;5114092;28;20165;-53
2023/08/15 07:43:52;;;;;;;10.57;7.53;;;23.30;99.90;;;;;;5114155;28;20173;-52
2023/08/15 07:46:18;;;;;;;16.30;8.23;;;23.20;99.90;;;;;;5113977;28;20188;-52
2023/08/15 07:48:44;;;;;;;10.70;7.57;;;23.20;99.90;;;;;;5113932;28;20201;-53
2023/08/15 07:51:10;;;;;;;14.13;8.50;;;23.20;99.90;;;;;;5114141;28;20188;-52
2023/08/15 07:53:36;;;;;;;10.53;7.20;;;23.10;99.90;;;;;;5113869;28;20410;-53
2023/08/15 07:56:01;;;;;;;9.90;7.50;;;23.10;99.90;;;;;;5113805;28;21019;-52
2023/08/15 07:58:27;;;;;;;11.20;8.23;;;23.00;1.00;;;;;;5113595;28;20307;-52
2023/08/15 08:00:52;;;;;;;10.50;7.67;;;23.00;1.00;;;;;;5116015;28;20205;-53
2023/08/15 08:03:18;;;;;;;14.70;8.07;;;22.90;1.00;;;;;;5117937;28;20188;-52
2023/08/15 08:05:44;;;;;;;12.57;7.73;;;22.90;99.00;;;;;;5117035;28;20509;-52
2023/08/15 08:08:09;;;;;;;14.37;8.77;;;22.80;99.90;;;;;;5117041;28;20212;-52
2023/08/15 08:10:36;;;;;;;8.50;7.33;;;22.80;1.00;;;;;;5117476;28;20238;-52
2023/08/15 08:13:02;;;;;;;11.93;8.27;;;22.70;1.00;;;;;;5117507;28;20185;-52
2023/08/15 08:15:28;;;;;;;10.70;9.30;;;22.70;99.90;;;;;;5117002;28;20933;-52
2023/08/15 08:17:54;;;;;;;11.17;9.33;;;22.60;99.90;;;;;;5117284;28;20189;-52
2023/08/15 08:20:20;;;;;;;15.67;9.00;;;22.50;1.00;;;;;;5117181;28;20425;-52
2023/08/15 08:22:46;;;;;;;14.27;8.10;;;22.40;1.00;;;;;;5116702;28;20232;-52
2023/08/15 08:25:29;;;;;;;11.93;9.57;;;22.40;1.00;;;;;;5117083;28;20459;-52
2023/08/15 08:27:55;;;;;;;15.00;9.60;;;22.30;1.00;;;;;;5116760;28;20203;-52
2023/08/15 08:30:22;;;;;;;10.97;9.43;;;22.20;99.90;;;;;;5117082;28;20407;-52
2023/08/15 08:32:48;;;;;;;15.53;11.10;;;22.10;9.80;;;;;;5116951;28;20261;-52
2023/08/15 08:35:17;;;;;;;13.03;10.00;;;22.10;99.90;;;;;;5116767;28;20421;-52
2023/08/15 08:37:47;;;;;;;11.80;10.10;;;22.10;99.90;;;;;;5116794;28;20467;-52
2023/08/15 08:40:13;;;;;;;15.50;10.63;;;22.10;99.90;;;;;;5116723;28;20419;-51
2023/08/15 08:42:40;;;;;;;14.90;9.67;;;22.00;99.00;;;;;;5116701;28;20407;-51
2023/08/15 08:45:08;;;;;;;10.70;8.90;;;22.00;1.00;;;;;;5116678;28;20447;-51
2023/08/15 08:47:36;;;;;;;13.10;10.47;;;22.00;52.80;;;;;;5116630;28;20414;-51
2023/08/15 08:50:05;;;;;;;14.03;10.30;;;22.00;99.90;;;;;;5116626;28;20501;-51
2023/08/15 08:52:31;;;;;;;11.83;10.50;;;22.00;99.90;;;;;;5116909;28;20422;-51
2023/08/15 08:54:57;;;;;;;13.23;9.60;;;22.00;99.90;;;;;;5116594;28;20493;-51
2023/08/15 08:57:26;;;;;;;12.27;10.20;;;22.00;1.00;;;;;;5116515;28;20200;-51
2023/08/15 08:59:55;;;;;;;12.50;10.27;;;22.00;1.00;;;;;;5116563;28;20188;-52
2023/08/15 09:02:22;;;;;;;10.97;9.73;;;22.00;99.90;;;;;;5116654;28;20422;-51
2023/08/15 09:04:48;;;;;;;12.73;8.73;;;22.10;99.90;;;;;;5116380;28;20435;-51
2023/08/15 09:07:15;;;;;;;13.23;9.53;;;22.20;99.90;;;;;;5116265;28;20498;-51
2023/08/15 09:09:41;;;;;;;12.23;9.00;;;22.30;99.90;;;;;;5115939;28;20558;-52
2023/08/15 09:12:07;;;;;;;12.83;8.90;;;22.50;1.00;;;;;;5115594;28;20448;-51
2023/08/15 09:14:38;;;;;;;16.83;10.17;;;22.70;99.90;;;;;;5115783;28;20533;-52
2023/08/15 09:17:04;;;;;;;17.37;8.83;;;23.30;99.90;;;;;;5116322;28;20399;-52
2023/08/15 09:19:32;;;;;;;11.60;8.50;;;24.00;99.90;;;;;;5116015;28;20936;-53
2023/08/15 09:21:57;;;;;;;11.17;7.87;;;24.70;99.90;;;;;;5115647;28;20246;-53
2023/08/15 09:24:27;;;;;;;8.20;7.27;;;25.10;1.00;;;;;;5116237;28;20410;-52
2023/08/15 09:26:52;;;;;;;9.07;6.80;;;25.40;99.90;;;;;;5116070;28;20556;-52
2023/08/15 09:29:18;;;;;;;8.50;6.70;;;25.60;99.90;;;;;;5116039;28;20515;-53
2023/08/15 09:31:44;;;;;;;11.50;6.10;;;25.50;99.90;;;;;;5115476;28;20664;-53
2023/08/15 09:34:10;;;;;;;9.43;6.30;;;25.50;99.90;;;;;;5115666;28;20181;-53
2023/08/15 09:36:35;;;;;;;9.50;6.20;;;25.60;99.90;;;;;;5115636;28;20226;-53
2023/08/15 09:39:06;;;;;;;7.70;6.20;;;25.70;99.90;;;;;;5115313;28;20422;-52
2023/08/15 09:41:31;;;;;;;8.57;5.80;;;26.00;2.10;;;;;;5115608;28;20640;-53
2023/08/15 09:43:57;;;;;;;8.57;5.60;;;26.20;2.60;;;;;;5115498;28;20415;-53
2023/08/15 09:46:23;;;;;;;9.37;5.70;;;26.50;1.00;;;;;;5115840;28;20271;-53
2023/08/15 09:48:49;;;;;;;7.00;5.80;;;26.50;1.00;;;;;;5115036;28;20252;-53
2023/08/15 09:51:16;;;;;;;6.90;5.50;;;26.80;1.00;;;;;;5115048;28;20932;-51
2023/08/15 09:53:43;;;;;;;7.43;6.13;;;27.00;1.00;;;;;;5114955;28;20548;-51
2023/08/15 09:56:10;;;;;;;8.30;5.97;;;27.00;1.00;;;;;;5115244;28;20434;-52
2023/08/15 09:58:37;;;;;;;7.93;5.93;;;27.10;1.00;;;;;;5114986;28;20907;-52
2023/08/15 10:01:06;;;;;;;9.63;5.63;;;27.30;1.00;;;;;;5115164;28;20414;-52
2023/08/15 10:03:38;;;;;;;11.23;5.40;;;27.50;1.00;;;;;;5115124;28;20418;-52
2023/08/15 10:06:07;;;;;;;7.53;5.30;;;27.40;1.00;;;;;;5115447;28;20754;-52
2023/08/15 10:08:37;;;;;;;9.10;5.43;;;27.30;1.00;;;;;;5115372;28;20531;-52
2023/08/15 10:11:07;;;;;;;8.47;5.73;;;27.20;1.00;;;;;;5115047;28;20402;-52
2023/08/15 10:13:35;;;;;;;8.87;5.17;;;27.10;1.00;;;;;;5115316;28;20500;-52
2023/08/15 10:16:03;;;;;;;10.07;5.63;;;27.40;1.00;;;;;;5114843;28;20407;-51
2023/08/15 10:18:30;;;;;;;7.10;5.43;;;28.00;1.00;;;;;;5114891;28;20778;-51
2023/08/15 10:20:56;;;;;;;7.60;5.17;;;28.50;1.00;;;;;;5114525;28;20455;-52
2023/08/15 10:23:34;;;;;;;7.93;5.50;;;28.90;1.00;;;;;;5114698;28;20414;-51
2023/08/15 10:26:01;;;;;;;6.03;5.17;;;29.30;1.00;;;;;;5114975;28;20426;-52
2023/08/15 10:28:33;;;;;;;6.43;4.97;;;29.80;1.00;;;;;;5115003;28;20542;-53
2023/08/15 10:30:58;;;;;;;7.63;5.20;;;29.80;1.00;;;;;;5114730;28;20782;-52
2023/08/15 10:33:28;;;;;;;6.03;5.53;;;29.20;1.00;;;;;;5114949;28;20418;-53
2023/08/15 10:35:54;;;;;;;6.23;5.30;;;28.70;1.00;;;;;;5114555;28;20267;-52
2023/08/15 10:38:27;;;;;;;7.27;5.70;;;28.00;1.00;;;;;;5114578;28;20510;-52
2023/08/15 10:41:04;;;;;;;5.77;5.27;;;27.50;1.00;;;;;;5114766;28;20200;-52
2023/08/15 10:43:32;;;;;;;6.73;6.10;;;27.00;1.00;;;;;;5114654;28;20464;-51
2023/08/15 10:46:01;;;;;;;11.27;6.57;;;26.50;1.00;;;;;;5114550;28;20422;-51
2023/08/15 10:48:50;;;;;;;7.27;6.40;;;26.30;1.00;;;;;;5114407;28;20457;-51
2023/08/15 10:51:26;;;;;;;6.50;5.50;;;26.90;1.00;;;;;;5114423;28;20406;-52
2023/08/15 10:53:53;;;;;;;8.07;5.80;;;27.60;1.00;;;;;;5114085;28;20407;-53
2023/08/15 10:56:20;;;;;;;12.13;6.27;;;27.30;1.00;;;;;;5114234;28;20509;-52
2023/08/15 10:58:47;;;;;;;7.43;6.63;;;26.80;1.00;;;;;;5114513;28;20422;-52
2023/08/15 11:01:20;;;;;;;9.67;7.90;;;26.50;1.00;;;;;;5114265;28;20462;-52
2023/08/15 11:03:47;;;;;;;8.23;6.50;;;26.70;1.00;;;;;;5114343;28;20442;-52
2023/08/15 11:06:13;;;;;;;7.30;6.60;;;27.60;1.00;;;;;;5114581;28;20514;-53
2023/08/15 11:08:43;;;;;;;8.47;7.30;;;28.50;1.00;;;;;;5114237;28;20462;-54
2023/08/15 11:11:09;;;;;;;8.60;6.50;;;29.40;1.00;;;;;;5113849;28;20453;-53
2023/08/15 11:13:42;;;;;;;7.30;6.40;;;30.00;1.00;;;;;;5114158;28;20407;-53
2023/08/15 11:16:08;;;;;;;9.83;7.00;;;30.60;1.00;;;;;;5114164;28;20513;-53
2023/08/15 11:18:37;;;;;;;7.80;7.00;;;30.70;1.00;;;;;;5114178;28;20410;-53
2023/08/15 11:21:08;;;;;;;7.83;6.97;;;30.60;1.00;;;;;;5113720;28;20407;-53
2023/08/15 11:23:34;;;;;;;6.53;5.93;;;30.70;1.00;;;;;;5114359;28;20413;-54
2023/08/15 11:26:03;;;;;;;8.00;6.50;;;30.80;1.00;;;;;;5114298;28;20510;-54
2023/08/15 11:28:30;;;;;;;8.57;6.90;;;31.20;1.00;;;;;;5113934;28;20299;-53
2023/08/15 11:30:57;;;;;;;7.40;6.70;;;31.40;1.00;;;;;;5113493;28;20415;-53
2023/08/15 11:33:24;;;;;;;8.40;6.97;;;31.50;1.00;;;;;;5113746;28;20505;-53
2023/08/15 11:35:50;;;;;;;7.93;6.43;;;31.00;1.00;;;;;;5115903;28;20407;-54
2023/08/15 11:38:19;;;;;;;8.63;6.70;;;30.30;1.00;;;;;;5117987;28;20413;-53
2023/08/15 11:40:45;;;;;;;7.50;6.77;;;29.80;1.00;;;;;;5117968;28;20805;-54
2023/08/15 11:43:11;;;;;;;7.83;6.97;;;29.10;1.00;;;;;;5117978;28;20442;-53
2023/08/15 11:45:39;;;;;;;8.33;7.60;;;28.50;1.00;;;;;;5117985;28;20187;-53
2023/08/15 11:48:06;;;;;;;10.07;7.80;;;27.70;1.00;;;;;;5117917;28;20795;-53
2023/08/15 11:50:34;;;;;;;11.50;7.70;;;27.10;1.00;;;;;;5117786;28;20418;-52
2023/08/15 11:53:06;;;;;;;13.30;9.03;;;26.80;1.00;;;;;;5117601;28;20487;-52
2023/08/15 11:55:35;;;;;;;10.47;8.67;;;26.50;1.00;;;;;;5117610;28;20488;-53
2023/08/15 11:58:02;;;;;;;11.17;9.93;;;26.10;1.00;;;;;;5117839;28;20727;-53
2023/08/15 12:00:27;;;;;;;13.57;10.63;;;25.80;1.00;;;;;;5117487;28;20433;-52
2023/08/15 12:02:55;;;;;;;14.63;10.53;;;25.70;1.00;;;;;;5117236;28;20423;-52
2023/08/15 12:05:21;;;;;;;14.27;10.53;;;26.20;11.90;;;;;;5118076;28;20619;-52
2023/08/15 12:07:48;;;;;;;14.10;11.47;;;27.40;1.00;;;;;;5117196;28;20438;-54
2023/08/15 12:10:15;;;;;;;12.20;10.33;;;28.80;1.00;;;;;;5116917;28;20414;-52
2023/08/15 12:12:46;;;;;;;16.93;10.90;;;30.00;1.00;;;;;;5117063;28;20476;-53
2023/08/15 12:15:14;;;;;;;18.07;11.00;;;30.40;1.00;;;;;;5099280;28;20394;-54
2023/08/15 12:17:40;;;;;;;11.77;10.57;;;30.70;1.00;;;;;;5116825;28;20426;-53
2023/08/15 12:20:11;;;;;;;17.03;11.47;;;30.10;1.00;;;;;;5117462;28;20411;-54
2023/08/15 12:22:39;;;;;;;18.77;11.00;;;29.40;1.00;;;;;;5117339;28;20473;-53
2023/08/15 12:25:07;;;;;;;13.13;10.53;;;29.10;1.00;;;;;;5117168;28;20413;-53
2023/08/15 12:27:36;;;;;;;13.90;10.20;;;29.00;1.00;;;;;;5117281;28;20407;-53
2023/08/15 12:30:03;;;;;;;13.33;8.93;;;29.90;1.00;;;;;;5117024;28;20784;-53
2023/08/15 12:32:29;;;;;;;15.37;9.37;;;30.60;1.00;;;;;;5116801;28;20450;-53
2023/08/15 12:34:55;;;;;;;14.00;9.87;;;30.80;1.00;;;;;;5116885;28;20434;-54